WEATHER/FLIGHT PLANNING

Hattiesburg Radar

 

 

 

 

Weather Links

Flight Planning Links

 

METAR

2020/02/17 08:53 KHBG 170853Z AUTO 00000KT 2 1/2SM BR OVC004 12/12 A3002 RMK AO2 SLP164 T01220117 58004

TAF

2020/02/17 06:36 TAF KHBG 170532Z 1706/1806 00000KT 4SM BR BKN005 FM171000 00000KT 1/4SM FG OVC002 FM171400 VRB03KT 3SM BR OVC005 FM171600 15004KT P6SM OVC015 FM171800 16006KT P6SM OVC025 FM172100 17007KT P6SM VCSH OVC035 FM180000 17004KT P6SM VCTS OVC015CB